Time;durP1;ratioP1;P1;durP2;ratioP2;P2;SDS_P1;SDS_P2;PMS_P1;PMS_P2;Temp;Humidity;BMP_temperature;BMP_pressure;BME280_temperature;BME280_humidity;BME280_pressure;Samples;Min_cycle;Max_cycle;Signal;HPM_P1;HPM_P2
2023/09/20 07:19:11;;;;;;;7.60;2.40;;;;;;;16.02;72.00;100463.18;110653;1211;109312;-72
2023/09/20 07:21:37;;;;;;;7.20;2.80;;;;;;;16.07;71.97;100467.39;110779;1210;138698;-72
2023/09/20 07:24:06;;;;;;;3.10;2.10;;;;;;;16.13;71.82;100466.77;111044;1206;97574;-72
2023/09/20 07:26:33;;;;;;;12.20;2.70;;;;;;;16.20;71.82;100465.91;110844;1211;138321;-70
2023/09/20 07:28:59;;;;;;;11.60;2.40;;;;;;;16.28;71.69;100465.90;110983;1208;98942;-71
2023/09/20 07:31:27;;;;;;;8.40;2.20;;;;;;;16.34;71.60;100462.23;110836;1206;98933;-71
2023/09/20 07:33:55;;;;;;;5.20;2.10;;;;;;;16.40;71.59;100461.08;110898;1206;138598;-71
2023/09/20 07:36:22;;;;;;;10.30;2.70;;;;;;;16.50;71.53;100459.13;111055;1206;97664;-70
2023/09/20 07:38:49;;;;;;;8.30;2.60;;;;;;;16.59;71.42;100461.89;110896;1211;139772;-69
2023/09/20 07:41:17;;;;;;;2.80;1.90;;;;;;;16.68;71.30;100463.48;111065;1212;98099;-70
2023/09/20 07:43:44;;;;;;;5.00;1.90;;;;;;;16.79;70.99;100467.50;110863;1211;139734;-70
2023/09/20 07:46:10;;;;;;;9.10;1.80;;;;;;;16.92;70.90;100466.57;111064;1211;97591;-70
2023/09/20 07:48:44;;;;;;;8.60;2.00;;;;;;;17.08;70.73;100467.05;111051;1206;97805;-70
2023/09/20 07:51:13;;;;;;;3.20;1.90;;;;;;;17.22;70.45;100464.77;110966;1211;138386;-70
2023/09/20 07:53:39;;;;;;;12.00;2.80;;;;;;;17.33;70.15;100463.36;111005;1206;97574;-70
2023/09/20 07:56:05;;;;;;;4.80;2.20;;;;;;;17.44;69.94;100462.54;110967;1206;139070;-72
2023/09/20 07:58:32;;;;;;;6.40;2.10;;;;;;;17.56;69.89;100459.84;111064;1206;97591;-71
2023/09/20 08:00:59;;;;;;;4.50;1.90;;;;;;;17.68;69.87;100456.45;111094;1210;97670;-73
2023/09/20 08:03:28;;;;;;;4.10;2.10;;;;;;;17.76;69.19;100461.99;110975;1207;139391;-72
2023/09/20 08:05:55;;;;;;;6.00;2.00;;;;;;;17.80;69.40;100457.66;111055;1209;97744;-73
2023/09/20 08:08:20;;;;;;;4.90;2.30;;;;;;;17.85;69.13;100461.09;110964;1206;140036;-73
2023/09/20 08:10:46;;;;;;;4.20;2.00;;;;;;;17.91;69.08;100460.30;111089;1211;97708;-71
2023/09/20 08:13:12;;;;;;;3.30;2.00;;;;;;;17.99;69.08;100455.64;111063;1209;103464;-73
2023/09/20 08:15:42;;;;;;;7.90;2.70;;;;;;;18.09;69.06;100458.88;111058;1212;139112;-72
2023/09/20 08:20:53;;;;;;;7.40;1.90;;;;;;;18.17;68.13;100460.79;110806;1222;139511;-72
2023/09/20 09:01:45;;;;;;;8.50;3.10;;;;;;;18.84;65.57;100472.12;110806;1211;139986;-69
2023/09/20 09:04:14;;;;;;;7.00;1.80;;;;;;;18.87;65.62;100468.42;110962;1206;97696;-71
2023/09/20 09:06:40;;;;;;;5.00;2.30;;;;;;;18.93;65.58;100472.45;111278;1211;103539;-72
2023/09/20 09:09:05;;;;;;;9.10;1.90;;;;;;;18.99;65.65;100468.54;110907;1211;140704;-72
2023/09/20 09:11:31;;;;;;;2.80;1.80;;;;;;;19.09;65.58;100470.80;110979;1210;97681;-72
2023/09/20 09:14:00;;;;;;;4.20;1.90;;;;;;;19.13;65.31;100471.73;110905;1207;139984;-72
2023/09/20 09:16:29;;;;;;;3.10;1.70;;;;;;;19.18;65.31;100471.90;111065;1221;102958;-72
2023/09/20 09:18:55;;;;;;;8.60;2.30;;;;;;;19.21;65.03;100475.61;110968;1211;97767;-71
2023/09/20 09:21:20;;;;;;;5.20;2.40;;;;;;;19.23;64.81;100468.70;110846;1207;139451;-71
2023/09/20 09:23:46;;;;;;;7.60;2.90;;;;;;;19.22;64.43;100465.40;110866;1211;97770;-72
2023/09/20 09:26:13;;;;;;;3.40;1.50;;;;;;;19.28;64.67;100468.11;110930;1211;139428;-72
2023/09/20 09:28:42;;;;;;;4.10;1.90;;;;;;;19.38;64.66;100462.20;111053;1211;98892;-72
2023/09/20 09:31:08;;;;;;;3.90;1.60;;;;;;;19.44;64.15;100465.73;110996;1212;98836;-72
2023/09/20 09:33:36;;;;;;;7.30;2.40;;;;;;;19.43;64.02;100457.48;110902;1210;138355;-72
2023/09/20 09:36:05;;;;;;;7.60;1.80;;;;;;;19.46;63.95;100459.20;111298;1209;97737;-74
2023/09/20 09:38:33;;;;;;;3.20;1.80;;;;;;;19.51;64.00;100456.45;110895;1212;142793;-73
2023/09/20 09:40:59;;;;;;;10.60;2.30;;;;;;;19.55;63.88;100455.63;110954;1211;97577;-73
2023/09/20 09:43:29;;;;;;;4.50;1.90;;;;;;;19.57;63.70;100452.85;110820;1211;97646;-72
2023/09/20 09:46:00;;;;;;;5.20;1.70;;;;;;;19.62;63.67;100450.80;111072;1211;97571;-71
2023/09/20 09:48:29;;;;;;;9.10;2.30;;;;;;;19.69;63.56;100454.41;110931;1212;97754;-71
2023/09/20 09:50:57;;;;;;;2.10;1.50;;;;;;;19.75;63.19;100456.91;110918;1212;138227;-72
2023/09/20 09:53:25;;;;;;;6.90;1.70;;;;;;;19.75;62.87;100455.51;110927;1211;98367;-72
2023/09/20 09:55:51;;;;;;;7.40;1.90;;;;;;;19.76;62.90;100447.95;110829;1212;137769;-73
2023/09/20 09:58:16;;;;;;;2.70;1.70;;;;;;;19.84;63.10;100453.09;110933;1211;97594;-73
2023/09/20 10:00:48;;;;;;;5.70;1.70;;;;;;;19.88;62.36;100446.42;110941;1206;97581;-72
2023/09/20 10:03:40;;;;;;;5.00;1.60;;;;;;;19.87;62.36;100450.70;110769;1212;139131;-74
2023/09/20 10:06:06;;;;;;;4.00;2.00;;;;;;;19.87;62.40;100449.09;111005;1212;99322;-74
2023/09/20 10:08:34;;;;;;;3.70;1.50;;;;;;;19.93;62.45;100451.10;110746;1219;137562;-73
2023/09/20 10:11:00;;;;;;;2.50;1.50;;;;;;;20.02;62.33;100443.95;110935;1211;97633;-72
2023/09/20 10:13:29;;;;;;;6.90;2.10;;;;;;;20.11;62.11;100444.13;110954;1211;98251;-72
2023/09/20 10:15:55;;;;;;;8.80;1.80;;;;;;;20.19;62.15;100445.39;110876;1210;98155;-71
2023/09/20 10:18:21;;;;;;;11.50;2.00;;;;;;;20.28;62.04;100436.26;110851;1206;98253;-72
2023/09/20 10:21:10;;;;;;;5.30;2.10;;;;;;;20.42;62.04;100440.84;110707;1212;139622;-72
2023/09/20 10:23:37;;;;;;;3.60;1.50;;;;;;;20.50;61.77;100439.60;110899;1212;103332;-71
2023/09/20 10:26:14;;;;;;;7.90;1.60;;;;;;;20.59;61.72;100440.31;110878;1212;138617;-71
2023/09/20 10:28:53;;;;;;;10.90;1.90;;;;;;;20.64;61.28;100432.74;110858;1210;99476;-72
2023/09/20 10:31:20;;;;;;;7.50;1.10;;;;;;;20.68;61.26;100438.02;110796;1206;97606;-72
2023/09/20 10:33:47;;;;;;;4.00;1.40;;;;;;;20.70;60.95;100430.90;111177;1211;138514;-72
2023/09/20 10:36:20;;;;;;;22.80;2.80;;;;;;;20.67;60.51;100428.85;110930;1206;97690;-72
2023/09/20 10:38:47;;;;;;;2.70;1.50;;;;;;;20.71;60.24;100435.19;110727;1212;138399;-72
2023/09/20 10:41:14;;;;;;;8.00;1.40;;;;;;;20.74;59.97;100433.45;111068;1212;97655;-72
2023/09/20 10:43:40;;;;;;;8.50;1.70;;;;;;;20.79;59.99;100430.29;110764;1212;138288;-73
2023/09/20 10:46:11;;;;;;;7.30;1.60;;;;;;;20.86;59.65;100433.66;110928;1206;98089;-72
2023/09/20 10:48:41;;;;;;;;;;;;;;;20.88;59.71;100430.92;110932;1210;103007;-72
2023/09/20 10:51:07;;;;;;;3.70;1.40;;;;;;;20.92;59.66;100427.27;110831;1206;124636;-71
2023/09/20 10:53:59;;;;;;;4.00;1.60;;;;;;;20.97;59.65;100422.27;110828;1212;97601;-71
2023/09/20 10:56:53;;;;;;;4.70;1.80;;;;;;;21.04;59.63;100420.36;110649;1222;137683;-72
2023/09/20 10:59:21;;;;;;;5.90;1.70;;;;;;;21.13;59.34;100421.96;111041;1212;97787;-72
2023/09/20 11:02:12;;;;;;;7.80;1.60;;;;;;;21.22;59.42;100417.30;110749;1211;139191;-71
2023/09/20 11:04:38;;;;;;;;;;;;;;;21.31;59.37;100419.58;110910;1212;97668;-72
2023/09/20 11:07:05;;;;;;;4.30;1.50;;;;;;;21.36;59.17;100417.11;110852;1206;98479;-71
2023/09/20 11:09:31;;;;;;;3.50;1.60;;;;;;;21.42;59.01;100410.75;110735;1212;138190;-73
2023/09/20 11:12:06;;;;;;;7.70;1.20;;;;;;;21.54;59.11;100418.74;110934;1206;97608;-71
2023/09/20 11:14:36;;;;;;;5.30;1.50;;;;;;;21.64;58.72;100415.62;110721;1210;137625;-71
2023/09/20 11:17:03;;;;;;;2.30;1.20;;;;;;;21.57;58.25;100410.96;110865;1210;99939;-73
2023/09/20 11:19:29;;;;;;;4.70;1.70;;;;;;;21.47;57.96;100403.70;110690;1206;97683;-73
2023/09/20 11:21:56;;;;;;;4.10;1.20;;;;;;;21.47;58.16;100397.92;110708;1212;98450;-71
2023/09/20 11:24:23;;;;;;;4.40;1.40;;;;;;;21.56;58.15;100393.10;110783;1206;97659;-71
2023/09/20 11:26:49;;;;;;;3.30;1.30;;;;;;;21.67;58.00;100396.73;110910;1218;137728;-71
2023/09/20 11:29:18;;;;;;;4.20;1.20;;;;;;;21.80;58.24;100396.64;110897;1209;97665;-71
2023/09/20 11:31:45;;;;;;;3.30;1.40;;;;;;;21.84;57.86;100390.05;110675;1206;138436;-71
2023/09/20 11:34:12;;;;;;;2.60;1.30;;;;;;;21.90;57.88;100391.72;110890;1206;97597;-72
2023/09/20 11:36:39;;;;;;;4.10;1.20;;;;;;;21.99;57.85;100388.32;110922;1206;97686;-72
2023/09/20 11:39:05;;;;;;;4.60;1.10;;;;;;;22.05;57.93;100392.45;111150;1206;138284;-72
2023/09/20 11:41:32;;;;;;;5.60;1.50;;;;;;;22.08;57.73;100389.69;111047;1206;97967;-72
2023/09/20 11:43:58;;;;;;;10.10;1.50;;;;;;;22.11;57.72;100384.45;110852;1212;138422;-71
2023/09/20 11:46:31;;;;;;;8.80;1.40;;;;;;;22.15;57.52;100377.50;110814;1206;97926;-72
2023/09/20 11:48:58;;;;;;;3.60;1.20;;;;;;;22.22;57.54;100379.31;110974;1206;99421;-72
2023/09/20 11:51:24;;;;;;;4.70;1.30;;;;;;;22.41;57.72;100381.15;110845;1212;138188;-72
2023/09/20 11:53:51;;;;;;;12.10;1.60;;;;;;;22.65;57.86;100380.95;110960;1206;98632;-72
2023/09/20 11:56:31;;;;;;;4.90;1.30;;;;;;;22.93;57.51;100376.10;110878;1210;138748;-72
2023/09/20 11:59:02;;;;;;;12.90;2.30;;;;;;;23.11;57.39;100379.34;111158;1211;97577;-72
2023/09/20 12:01:33;;;;;;;4.30;1.10;;;;;;;23.25;57.04;100385.00;110886;1206;99417;-72
2023/09/20 12:04:01;;;;;;;3.50;1.00;;;;;;;23.31;56.47;100380.08;110822;1220;97672;-72
2023/09/20 12:06:26;;;;;;;5.10;1.30;;;;;;;23.26;56.20;100376.36;110911;1212;99288;-72
2023/09/20 12:08:53;;;;;;;5.20;1.20;;;;;;;23.35;56.31;100375.63;110744;1206;137555;-72
2023/09/20 12:11:18;;;;;;;4.00;1.10;;;;;;;23.49;56.02;100373.23;110958;1209;98323;-72
2023/09/20 12:13:45;;;;;;;6.20;1.60;;;;;;;23.66;55.58;100371.77;110699;1212;139306;-72
2023/09/20 12:16:11;;;;;;;4.20;1.10;;;;;;;23.68;55.27;100368.80;110891;1213;97584;-72
2023/09/20 12:18:36;;;;;;;3.40;0.90;;;;;;;23.69;54.96;100362.92;110741;1209;97703;-73
2023/09/20 12:21:03;;;;;;;2.70;1.80;;;;;;;23.71;54.09;100360.08;110961;1206;140604;-73
2023/09/20 12:23:29;;;;;;;4.80;1.30;;;;;;;23.79;54.74;100363.88;111046;1206;97734;-72
2023/09/20 12:25:55;;;;;;;6.50;1.50;;;;;;;23.91;54.52;100365.88;110672;1209;139303;-72
2023/09/20 12:28:20;;;;;;;4.20;1.30;;;;;;;23.85;53.69;100362.11;110825;1209;97723;-73
2023/09/20 12:30:46;;;;;;;3.20;1.00;;;;;;;23.78;53.89;100356.82;110842;1206;99248;-74
2023/09/20 12:33:11;;;;;;;1.70;1.20;;;;;;;23.93;54.22;100357.77;110735;1212;137578;-74
2023/09/20 12:35:40;;;;;;;3.00;0.90;;;;;;;24.10;54.03;100356.90;110856;1206;97843;-74
2023/09/20 12:38:06;;;;;;;1.70;1.30;;;;;;;24.27;53.38;100365.45;111067;1206;138168;-74
2023/09/20 12:40:32;;;;;;;6.90;1.20;;;;;;;24.34;53.32;100361.05;111090;1209;99598;-73
2023/09/20 12:42:59;;;;;;;6.00;1.10;;;;;;;24.45;53.08;100351.98;110927;1206;97578;-73
2023/09/20 12:45:24;;;;;;;5.40;1.40;;;;;;;24.41;52.63;100356.79;111082;1211;139497;-73
2023/09/20 12:47:50;;;;;;;9.30;2.40;;;;;;;24.31;52.38;100359.52;110801;1206;98029;-73
2023/09/20 12:50:16;;;;;;;4.50;1.10;;;;;;;24.33;52.61;100365.50;110740;1219;138427;-72
2023/09/20 12:52:43;;;;;;;9.50;1.80;;;;;;;24.51;52.68;100360.13;110966;1209;97709;-71
2023/09/20 12:55:10;;;;;;;1.00;0.80;;;;;;;24.66;52.62;100352.11;110828;1212;102753;-72
2023/09/20 12:57:38;;;;;;;1.70;0.80;;;;;;;24.90;52.70;100349.55;110660;1206;138528;-72
2023/09/20 13:00:05;;;;;;;3.20;0.90;;;;;;;25.30;52.50;100345.64;110729;1211;99538;-74
2023/09/20 13:02:31;;;;;;;4.30;1.40;;;;;;;25.53;51.70;100343.89;111107;1209;137728;-71
2023/09/20 13:04:59;;;;;;;4.10;1.20;;;;;;;25.64;51.29;100341.52;110865;1212;97773;-74
2023/09/20 13:07:26;;;;;;;4.80;1.00;;;;;;;25.75;51.29;100336.86;110916;1206;97577;-73
2023/09/20 13:09:57;;;;;;;3.80;1.20;;;;;;;25.93;50.87;100331.33;110704;1212;137432;-73
2023/09/20 13:12:23;;;;;;;3.60;1.00;;;;;;;26.20;50.72;100329.55;110875;1209;99371;-74
2023/09/20 13:14:49;;;;;;;7.00;1.20;;;;;;;26.35;50.33;100325.76;111007;1206;139373;-71
2023/09/20 13:17:16;;;;;;;27.70;3.50;;;;;;;26.51;50.21;100323.08;111101;1210;97576;-74
2023/09/20 13:19:41;;;;;;;9.50;1.60;;;;;;;26.78;50.07;100322.48;110708;1220;143548;-74
2023/09/20 13:22:08;;;;;;;2.10;1.20;;;;;;;27.01;49.37;100323.46;110763;1206;97715;-73
2023/09/20 13:24:36;;;;;;;2.10;1.00;;;;;;;27.13;49.27;100322.27;110836;1212;98942;-73
2023/09/20 13:27:02;;;;;;;2.60;1.10;;;;;;;27.20;48.64;100324.31;110876;1209;138748;-73
2023/09/20 13:29:28;;;;;;;25.60;2.90;;;;;;;27.18;47.88;100325.80;110915;1212;98483;-73
2023/09/20 13:31:54;;;;;;;7.80;1.30;;;;;;;27.15;47.33;100317.91;110854;1206;138536;-73
2023/09/20 13:34:21;;;;;;;7.20;1.40;;;;;;;27.28;47.02;100319.34;110781;1212;99112;-70
2023/09/20 13:36:47;;;;;;;3.70;1.40;;;;;;;27.49;47.28;100322.80;110944;1212;97671;-71
2023/09/20 13:39:16;;;;;;;17.70;1.70;;;;;;;27.84;46.42;100324.36;110766;1206;139579;-71
2023/09/20 13:41:42;;;;;;;4.40;1.40;;;;;;;27.92;45.96;100328.73;111186;1212;97674;-70
2023/09/20 13:44:08;;;;;;;3.10;1.10;;;;;;;27.94;45.82;100328.99;110835;1209;139737;-70
2023/09/20 13:46:34;;;;;;;9.60;1.20;;;;;;;27.98;45.47;100332.16;110852;1211;97681;-70
2023/09/20 13:48:59;;;;;;;4.30;1.00;;;;;;;27.98;45.31;100330.64;111190;1206;97605;-70
2023/09/20 13:51:27;;;;;;;4.40;1.00;;;;;;;28.02;44.96;100332.61;110711;1218;138236;-71
2023/09/20 13:53:54;;;;;;;4.20;1.20;;;;;;;27.98;45.11;100330.13;110780;1212;97949;-71
2023/09/20 13:56:21;;;;;;;6.40;1.00;;;;;;;27.92;44.95;100326.80;110717;1212;138632;-71
2023/09/20 13:58:46;;;;;;;3.30;1.10;;;;;;;27.95;44.83;100319.69;111709;1211;97805;-71
2023/09/20 14:01:11;;;;;;;4.30;1.00;;;;;;;27.99;44.45;100312.59;110852;1222;97715;-70
2023/09/20 14:03:37;;;;;;;5.40;1.00;;;;;;;28.09;44.42;100316.19;110642;1212;137657;-71
2023/09/20 14:06:04;;;;;;;2.50;0.90;;;;;;;28.26;44.13;100318.23;110884;1208;99051;-70
2023/09/20 14:08:30;;;;;;;3.10;1.20;;;;;;;28.33;43.68;100314.42;110781;1209;139051;-71
2023/09/20 14:10:56;;;;;;;3.00;1.30;;;;;;;28.30;43.43;100311.68;110940;1206;96459;-71
2023/09/20 14:13:24;;;;;;;4.30;1.10;;;;;;;28.28;43.17;100311.39;110937;1206;97694;-70
2023/09/20 14:15:50;;;;;;;4.00;1.10;;;;;;;28.49;43.30;100310.63;110729;1206;138075;-70
2023/09/20 14:18:16;;;;;;;14.60;1.50;;;;;;;28.66;43.33;100306.09;110907;1212;97662;-71
2023/09/20 14:20:42;;;;;;;2.90;1.40;;;;;;;28.78;43.17;100308.58;110852;1206;140716;-70
2023/09/20 14:23:08;;;;;;;5.40;1.50;;;;;;;28.89;43.41;100304.32;110912;1212;97768;-71
2023/09/20 14:25:34;;;;;;;3.50;1.30;;;;;;;28.90;43.06;100303.06;110876;1206;137960;-69
2023/09/20 14:28:00;;;;;;;4.60;1.40;;;;;;;28.78;42.48;100300.94;111238;1212;101442;-71
2023/09/20 14:30:25;;;;;;;3.80;1.60;;;;;;;28.82;42.85;100299.44;110801;1212;99329;-70
2023/09/20 14:32:55;;;;;;;2.00;1.00;;;;;;;28.82;42.45;100292.30;110731;1207;139306;-71
2023/09/20 14:35:22;;;;;;;2.80;1.40;;;;;;;28.96;42.90;100294.05;111027;1209;97600;-69
2023/09/20 14:37:51;;;;;;;2.00;1.10;;;;;;;28.98;42.71;100294.69;110852;1206;137880;-70
2023/09/20 14:40:21;;;;;;;9.90;1.60;;;;;;;28.89;41.93;100288.66;111079;1206;97207;-70
2023/09/20 14:42:50;;;;;;;;;;;;;;;28.78;42.10;100288.72;111187;1206;99326;-70
2023/09/20 14:45:18;;;;;;;7.50;2.10;;;;;;;28.77;42.20;100289.02;110989;1206;124568;-70
2023/09/20 14:47:44;;;;;;;4.00;1.40;;;;;;;28.66;41.74;100291.30;111151;1206;97732;-70
2023/09/20 14:50:14;;;;;;;1.40;0.90;;;;;;;28.42;41.83;100295.94;110989;1229;137807;-70
2023/09/20 14:52:40;;;;;;;3.20;1.10;;;;;;;28.17;41.86;100299.28;111137;1209;96984;-70
2023/09/20 14:55:08;;;;;;;5.90;1.30;;;;;;;28.00;42.07;100295.88;111115;1210;97779;-70
2023/09/20 14:57:33;;;;;;;6.10;1.50;;;;;;;27.95;42.12;100287.94;110976;1206;137690;-71
2023/09/20 15:00:00;;;;;;;2.00;1.00;;;;;;;27.94;42.11;100286.54;111156;1209;98369;-71
2023/09/20 15:02:26;;;;;;;5.20;1.20;;;;;;;27.94;41.98;100291.39;111006;1212;137680;-71
2023/09/20 15:04:51;;;;;;;4.20;1.10;;;;;;;27.82;42.04;100295.15;111012;1206;97612;-70
2023/09/20 15:07:16;;;;;;;1.80;1.10;;;;;;;27.66;42.14;100299.02;111017;1210;97697;-71
2023/09/20 15:09:46;;;;;;;3.40;1.40;;;;;;;27.67;42.26;100296.67;110927;1206;137630;-71
2023/09/20 15:12:15;;;;;;;2.80;1.00;;;;;;;27.59;42.27;100298.34;111037;1209;97616;-70
2023/09/20 15:14:42;;;;;;;3.80;1.00;;;;;;;27.60;42.51;100296.74;110820;1206;137849;-70
2023/09/20 15:17:08;;;;;;;5.80;1.30;;;;;;;27.71;42.29;100293.64;111084;1210;97671;-73
2023/09/20 15:19:33;;;;;;;3.90;1.00;;;;;;;27.64;42.33;100288.81;110990;1205;98542;-69
2023/09/20 15:21:59;;;;;;;4.50;1.30;;;;;;;27.63;42.23;100292.20;110956;1206;97883;-71
2023/09/20 15:24:24;;;;;;;2.50;1.20;;;;;;;27.36;42.27;100292.27;110946;1212;97664;-70
2023/09/20 15:26:52;;;;;;;1.80;1.10;;;;;;;27.28;42.62;100291.41;110885;1206;137709;-70
2023/09/20 15:29:17;;;;;;;1.90;1.10;;;;;;;27.35;42.65;100292.42;111022;1209;103068;-70
2023/09/20 15:31:45;;;;;;;3.90;1.20;;;;;;;27.36;42.56;100296.55;110854;1210;138999;-69
2023/09/20 15:34:11;;;;;;;6.80;1.60;;;;;;;27.32;42.64;100293.77;110997;1209;97781;-70
2023/09/20 15:36:36;;;;;;;4.50;1.20;;;;;;;27.31;42.94;100295.30;111008;1206;96587;-70
2023/09/20 15:39:02;;;;;;;2.50;1.90;;;;;;;27.34;42.76;100296.63;110850;1209;138214;-68
2023/09/20 15:41:27;;;;;;;3.50;1.50;;;;;;;27.33;42.86;100294.67;110976;1209;97543;-69
2023/09/20 15:43:52;;;;;;;3.70;1.40;;;;;;;27.37;42.90;100293.81;110871;1209;137829;-70
2023/09/20 16:19:59;;;;;;;6.90;2.20;;;;;;;24.95;45.25;100303.30;110839;1209;138105;-69
2023/09/20 16:22:25;;;;;;;3.80;2.10;;;;;;;24.68;45.41;100298.75;110893;1206;97506;-77
2023/09/20 16:24:51;;;;;;;9.40;1.60;;;;;;;24.39;45.81;100295.88;110952;1209;97662;-74
2023/09/20 16:27:16;;;;;;;7.40;1.80;;;;;;;24.20;45.99;100300.17;110736;1209;137914;-74
2023/09/20 16:29:42;;;;;;;5.50;1.90;;;;;;;24.05;46.36;100301.38;110813;1209;97661;-73
2023/09/20 16:32:07;;;;;;;7.10;2.40;;;;;;;23.94;46.58;100303.09;110790;1206;138496;-74
2023/09/20 16:34:33;;;;;;;5.80;1.90;;;;;;;23.78;46.71;100304.07;110747;1209;99238;-75
2023/09/20 16:37:00;;;;;;;9.50;2.00;;;;;;;23.61;47.14;100300.38;110892;1206;97087;-76
2023/09/20 16:39:25;;;;;;;9.40;2.60;;;;;;;23.46;47.32;100298.95;110834;1206;137742;-73
2023/09/20 16:41:50;;;;;;;9.70;2.10;;;;;;;23.38;47.36;100301.81;110828;1212;97720;-76
2023/09/20 16:44:15;;;;;;;6.90;1.90;;;;;;;23.28;47.57;100301.92;110786;1209;138752;-77
2023/09/20 16:46:41;;;;;;;9.20;1.80;;;;;;;23.13;47.96;100297.88;110845;1206;98412;-76
2023/09/20 16:49:06;;;;;;;8.40;1.90;;;;;;;23.00;48.03;100301.00;110949;1209;97728;-76
2023/09/20 16:51:31;;;;;;;7.70;1.60;;;;;;;22.89;48.57;100303.33;110722;1206;138826;-77
2023/09/20 16:53:56;;;;;;;6.20;1.90;;;;;;;22.83;48.48;100303.26;110980;1206;97751;-77
2023/09/20 16:56:22;;;;;;;7.50;2.30;;;;;;;22.74;48.91;100298.30;110803;1206;138239;-75
2023/09/20 16:58:47;;;;;;;6.70;1.80;;;;;;;22.64;48.96;100296.35;110907;1207;98217;-75
2023/09/20 17:01:17;;;;;;;6.90;2.20;;;;;;;22.50;49.37;100295.39;111004;1206;98313;-76
2023/09/20 17:03:43;;;;;;;5.20;1.90;;;;;;;22.41;49.79;100295.78;111242;1206;138134;-75
2023/09/20 17:06:08;;;;;;;6.80;1.90;;;;;;;22.34;49.84;100296.95;110969;1209;97913;-75
2023/09/20 17:08:33;;;;;;;11.20;3.10;;;;;;;22.28;50.02;100298.67;110814;1206;139545;-75
2023/09/20 17:10:58;;;;;;;8.00;2.80;;;;;;;22.21;50.06;100298.10;110864;1209;97717;-73
2023/09/20 17:13:26;;;;;;;10.60;3.30;;;;;;;22.08;50.28;100301.96;110977;1206;97116;-74
2023/09/20 17:15:52;;;;;;;11.10;2.90;;;;;;;21.96;50.44;100303.01;110835;1206;138647;-74
2023/09/20 17:18:18;;;;;;;10.30;3.40;;;;;;;21.87;50.81;100300.13;113247;1206;96078;-74
2023/09/20 17:20:44;;;;;;;9.90;3.20;;;;;;;21.79;50.98;100296.53;113099;1206;138493;-77
2023/09/20 17:23:10;;;;;;;11.10;3.30;;;;;;;21.70;51.05;100300.34;112521;1209;97705;-75
2023/09/20 17:25:35;;;;;;;7.20;3.20;;;;;;;21.60;51.32;100298.70;110875;1212;138043;-72
2023/09/20 17:28:03;;;;;;;9.30;2.90;;;;;;;21.51;51.60;100299.33;111168;1206;97702;-73
2023/09/20 17:30:29;;;;;;;5.40;2.40;;;;;;;21.42;51.87;100302.00;110974;1210;102166;-73
2023/09/20 17:32:54;;;;;;;6.10;2.90;;;;;;;21.35;52.14;100299.22;110949;1209;138256;-75
2023/09/20 17:35:20;;;;;;;4.60;2.40;;;;;;;21.27;52.25;100301.60;111038;1205;97568;-72
2023/09/20 17:37:46;;;;;;;6.50;3.30;;;;;;;21.19;52.48;100300.02;110856;1209;138542;-73
2023/09/20 17:40:16;;;;;;;12.40;3.60;;;;;;;21.13;52.64;100299.12;111159;1206;98083;-73
2023/09/20 17:42:43;;;;;;;8.40;2.70;;;;;;;21.06;52.90;100298.25;110954;1221;102653;-74
2023/09/20 17:45:10;;;;;;;13.30;3.00;;;;;;;21.02;53.15;100299.34;110959;1206;138322;-74
2023/09/20 17:47:36;;;;;;;12.10;3.00;;;;;;;20.98;53.27;100304.09;110986;1206;97671;-74
2023/09/20 17:50:01;;;;;;;9.50;3.00;;;;;;;20.94;53.42;100307.05;110879;1209;139272;-74
2023/09/20 17:52:26;;;;;;;11.50;2.70;;;;;;;20.89;53.47;100310.77;111072;1226;97544;-74
2023/09/20 17:54:53;;;;;;;4.60;2.40;;;;;;;20.85;53.63;100310.81;110975;1211;98130;-76
2023/09/20 17:57:18;;;;;;;9.70;3.30;;;;;;;20.80;53.83;100308.52;110867;1206;139857;-76
2023/09/20 17:59:44;;;;;;;9.40;3.70;;;;;;;20.73;54.09;100308.23;110973;1206;97595;-77
2023/09/20 18:02:09;;;;;;;9.80;3.60;;;;;;;20.68;54.25;100308.39;110859;1209;139662;-78
2023/09/20 18:04:36;;;;;;;8.40;3.60;;;;;;;20.64;54.34;100312.34;111029;1206;97597;-79
2023/09/20 18:37:45;;;;;;;10.20;3.70;;;;;;;20.05;56.08;100310.23;111076;1206;97501;-76
2023/09/20 18:40:12;;;;;;;10.10;3.90;;;;;;;20.01;56.28;100314.55;110862;1220;97808;-73
2023/09/20 18:42:37;;;;;;;11.00;4.60;;;;;;;19.97;56.37;100312.21;111384;1206;98231;-74
2023/09/20 18:45:04;;;;;;;9.20;4.40;;;;;;;19.92;56.43;100312.08;110934;1208;138882;-74
2023/09/20 18:47:30;;;;;;;19.90;5.10;;;;;;;19.89;56.61;100318.75;111018;1206;99135;-74
2023/09/20 18:49:56;;;;;;;13.80;4.00;;;;;;;19.85;56.73;100323.20;110945;1210;138067;-74
2023/09/20 18:52:21;;;;;;;9.10;4.00;;;;;;;19.80;56.88;100324.54;111035;1209;97581;-74
2023/09/20 18:54:49;;;;;;;8.40;3.90;;;;;;;19.75;56.88;100328.03;110987;1209;97697;-71
2023/09/20 18:57:16;;;;;;;5.90;3.40;;;;;;;19.70;57.21;100322.38;110732;1210;138804;-73
2023/09/20 18:59:42;;;;;;;11.40;4.90;;;;;;;19.67;57.23;100327.14;110864;1206;100941;-74
2023/09/20 19:02:11;;;;;;;20.90;4.00;;;;;;;19.61;57.43;100321.66;110829;1206;139323;-73
2023/09/20 19:04:37;;;;;;;9.60;4.00;;;;;;;19.58;57.56;100327.50;110890;1206;98328;-75
2023/09/20 19:07:03;;;;;;;14.70;3.90;;;;;;;19.55;57.70;100326.73;111188;1209;97603;-78
2023/09/20 19:09:28;;;;;;;10.00;3.80;;;;;;;19.51;57.81;100323.42;110943;1210;138869;-75
2023/09/20 19:11:54;;;;;;;10.60;4.10;;;;;;;19.48;58.01;100325.87;110953;1209;97873;-77
2023/09/20 19:14:19;;;;;;;8.80;3.80;;;;;;;19.44;58.09;100323.24;110898;1206;138775;-75
2023/09/20 19:16:44;;;;;;;8.60;3.90;;;;;;;19.41;58.15;100318.84;110927;1211;98055;-78
2023/09/20 19:19:11;;;;;;;10.40;3.20;;;;;;;19.37;58.28;100319.89;110977;1209;98328;-73
2023/09/20 19:21:38;;;;;;;12.50;3.60;;;;;;;19.34;58.44;100315.29;110887;1206;139577;-75
2023/09/20 19:24:09;;;;;;;8.20;2.80;;;;;;;19.29;58.55;100316.27;111095;1206;97591;-74
2023/09/20 19:26:37;;;;;;;;;;;;;;;19.25;58.64;100318.19;110867;1211;139562;-76
2023/09/20 19:29:05;;;;;;;13.40;3.10;;;;;;;19.21;58.80;100320.55;110891;1206;97716;-75
2023/09/20 19:31:31;;;;;;;7.30;3.80;;;;;;;19.16;58.87;100315.34;111096;1209;98322;-75
2023/09/20 19:33:56;;;;;;;7.30;3.00;;;;;;;19.13;58.89;100313.61;110752;1206;138472;-77
2023/09/20 19:36:22;;;;;;;12.00;3.00;;;;;;;19.10;58.87;100315.65;111133;1206;97625;-75
2023/09/20 19:38:52;;;;;;;13.40;3.90;;;;;;;19.07;59.01;100318.11;110878;1209;138804;-75
2023/09/20 19:41:19;;;;;;;5.80;3.60;;;;;;;19.04;59.19;100316.73;110960;1211;97680;-75
2023/09/20 19:53:51;;;;;;;14.10;4.10;;;;;;;18.89;59.69;100320.70;110722;1206;97668;-64
2023/09/20 19:56:24;;;;;;;7.70;3.50;;;;;;;18.86;59.85;100321.90;110833;1211;139280;-64
2023/09/20 19:58:50;;;;;;;7.50;3.70;;;;;;;18.82;59.80;100321.29;110724;1211;102423;-65
2023/09/20 20:01:16;;;;;;;11.50;3.60;;;;;;;18.78;59.92;100319.02;111090;1206;98565;-63
2023/09/20 20:03:43;;;;;;;6.50;3.30;;;;;;;18.75;59.99;100315.48;110655;1211;139071;-63
2023/09/20 20:06:09;;;;;;;7.60;3.30;;;;;;;18.74;60.15;100315.06;111104;1206;109076;-63
2023/09/20 20:08:37;;;;;;;11.90;3.50;;;;;;;18.70;60.14;100311.02;110711;1222;139087;-63
2023/09/20 20:11:10;;;;;;;12.40;3.30;;;;;;;18.69;60.29;100306.48;110915;1211;97651;-64
2023/09/20 20:13:36;;;;;;;13.00;4.20;;;;;;;18.63;60.33;100301.13;110743;1221;99958;-66
2023/09/20 20:16:02;;;;;;;14.60;3.50;;;;;;;18.59;60.53;100300.40;110715;1209;138440;-65
2023/09/20 20:18:27;;;;;;;8.70;3.60;;;;;;;18.55;60.61;100298.67;110967;1206;97661;-66
2023/09/20 20:20:54;;;;;;;19.10;3.80;;;;;;;18.50;60.62;100296.73;110723;1211;139319;-64
2023/09/20 20:23:21;;;;;;;14.00;3.40;;;;;;;18.45;60.65;100299.81;110808;1206;97716;-65
2023/09/20 20:25:46;;;;;;;10.10;3.80;;;;;;;18.42;60.81;100300.66;110673;1206;138838;-65
2023/09/20 20:28:18;;;;;;;16.20;3.70;;;;;;;18.38;60.95;100297.04;110948;1211;97667;-65